Time;durP1;ratioP1;P1;durP2;ratioP2;P2;SDS_P1;SDS_P2;PMS_P1;PMS_P2;Temp;Humidity;BMP_temperature;BMP_pressure;BME280_temperature;BME280_humidity;BME280_pressure;Samples;Min_cycle;Max_cycle;Signal;HPM_P1;HPM_P2
2022/10/21 00:01:48;;;;;;;24.88;9.15;;;;;;;;;;5020708;28;20068;-65
2022/10/21 00:04:14;;;;;;;22.75;8.90;;;;;;;;;;5028701;28;20021;-66
2022/10/21 00:06:39;;;;;;;22.55;9.77;;;;;;;;;;5041977;28;20025;-66
2022/10/21 00:09:04;;;;;;;17.92;9.13;;;;;;;;;;5034147;28;20024;-67
2022/10/21 00:11:29;;;;;;;23.05;9.15;;;;;;;;;;5031416;28;20022;-66
2022/10/21 00:13:55;;;;;;;22.85;8.75;;;;;;;;;;5032368;28;20438;-67
2022/10/21 00:16:20;;;;;;;22.88;9.80;;;;;;;;;;5032130;28;20041;-65
2022/10/21 00:18:46;;;;;;;22.00;8.30;;;;;;;;;;5032223;28;20025;-65
2022/10/21 00:21:13;;;;;;;23.95;9.00;;;;;;;;;;5032234;28;20104;-66
2022/10/21 00:23:39;;;;;;;19.17;9.05;;;;;;;;;;5032593;28;20053;-67
2022/10/21 00:26:04;;;;;;;23.88;8.88;;;;;;;;;;5032551;28;20553;-66
2022/10/21 00:28:29;;;;;;;17.70;8.35;;;;;;;;;;5012989;28;20030;-67
2022/10/21 00:30:55;;;;;;;24.67;9.10;;;;;;;;;;5032698;28;20037;-65
2022/10/21 00:33:20;;;;;;;19.02;8.48;;;;;;;;;;5033524;28;20022;-67
2022/10/21 00:35:49;;;;;;;19.40;8.48;;;;;;;;;;5032969;28;20021;-66
2022/10/21 00:38:14;;;;;;;;;;;;;;;;;;5032267;28;20092;-67
2022/10/21 00:40:40;;;;;;;32.28;8.45;;;;;;;;;;5033339;28;20015;-66
2022/10/21 00:43:05;;;;;;;19.05;9.27;;;;;;;;;;5039220;28;20413;-66
2022/10/21 00:45:30;;;;;;;21.57;8.13;;;;;;;;;;5032286;28;20034;-66
2022/10/21 00:48:03;;;;;;;19.60;8.15;;;;;;;;;;5032293;28;20254;-65
2022/10/21 00:50:40;;;;;;;19.38;8.10;;;;;;;;;;5021051;28;20029;-65
2022/10/21 00:53:08;;;;;;;31.75;8.38;;;;;;;;;;5030890;28;20021;-66
2022/10/21 00:55:35;;;;;;;20.17;7.90;;;;;;;;;;5037733;28;20021;-66
2022/10/21 00:58:01;;;;;;;20.17;8.55;;;;;;;;;;5033513;28;20096;-65
2022/10/21 01:00:27;;;;;;;26.20;8.10;;;;;;;;;;5031914;28;20052;-65
2022/10/21 01:02:52;;;;;;;18.40;8.15;;;;;;;;;;5031880;28;20166;-66
2022/10/21 01:05:17;;;;;;;21.48;7.75;;;;;;;;;;5047321;28;20025;-65
2022/10/21 01:07:44;;;;;;;18.30;8.65;;;;;;;;;;5042190;28;20024;-65
2022/10/21 01:10:10;;;;;;;20.80;9.05;;;;;;;;;;5040723;28;20051;-64
2022/10/21 01:12:53;;;;;;;19.10;8.13;;;;;;;;;;5032897;28;20017;-66
2022/10/21 01:15:38;;;;;;;24.77;9.75;;;;;;;;;;5043117;28;20402;-66
2022/10/21 01:18:12;;;;;;;25.52;8.90;;;;;;;;;;5031247;28;20112;-64
2022/10/21 01:20:43;;;;;;;22.08;8.35;;;;;;;;;;5031156;28;20096;-65
2022/10/21 01:23:11;;;;;;;22.25;8.60;;;;;;;;;;5028666;28;20419;-65
2022/10/21 01:25:56;;;;;;;21.38;8.65;;;;;;;;;;5030566;28;20013;-66
2022/10/21 01:28:21;;;;;;;20.38;8.45;;;;;;;;;;5016922;28;20033;-67
2022/10/21 01:30:58;;;;;;;21.67;8.20;;;;;;;;;;5029622;28;20017;-65
2022/10/21 01:33:31;;;;;;;19.08;9.05;;;;;;;;;;5030801;28;20274;-66
2022/10/21 01:36:06;;;;;;;20.52;8.45;;;;;;;;;;5036275;28;20021;-66
2022/10/21 01:38:35;;;;;;;17.50;7.72;;;;;;;;;;5036597;28;20014;-66
2022/10/21 01:41:04;;;;;;;20.95;8.82;;;;;;;;;;5034482;28;20100;-65
2022/10/21 01:43:29;;;;;;;19.42;8.57;;;;;;;;;;5030754;28;20502;-66
2022/10/21 01:45:58;;;;;;;24.60;9.20;;;;;;;;;;5033958;28;20029;-65
2022/10/21 01:48:26;;;;;;;37.78;9.45;;;;;;;;;;5032866;28;20258;-66
2022/10/21 01:50:57;;;;;;;21.92;9.68;;;;;;;;;;5023791;28;20456;-65
2022/10/21 01:53:25;;;;;;;18.83;8.13;;;;;;;;;;5037853;28;20021;-66
2022/10/21 01:55:50;;;;;;;20.13;9.70;;;;;;;;;;5030828;28;20029;-66
2022/10/21 01:58:19;;;;;;;20.23;8.98;;;;;;;;;;5033863;28;20021;-66
2022/10/21 02:00:45;;;;;;;19.00;9.23;;;;;;;;;;5030388;28;20022;-66
2022/10/21 02:03:12;;;;;;;19.08;8.98;;;;;;;;;;5026809;28;20432;-66
2022/10/21 02:05:38;;;;;;;19.13;9.45;;;;;;;;;;5031317;28;20053;-66
2022/10/21 02:08:03;;;;;;;17.95;8.57;;;;;;;;;;5025378;28;20080;-66
2022/10/21 02:10:32;;;;;;;19.48;9.00;;;;;;;;;;5041406;28;20021;-66
2022/10/21 02:12:59;;;;;;;26.25;9.80;;;;;;;;;;5036119;28;20100;-66
2022/10/21 02:15:24;;;;;;;20.30;8.02;;;;;;;;;;5037751;28;20030;-66
2022/10/21 02:17:52;;;;;;;24.45;9.80;;;;;;;;;;5043009;28;20021;-67
2022/10/21 02:20:18;;;;;;;23.13;9.43;;;;;;;;;;5030121;28;20017;-66
2022/10/21 02:22:45;;;;;;;24.88;9.10;;;;;;;;;;5029785;28;20068;-66
2022/10/21 02:25:14;;;;;;;17.88;8.38;;;;;;;;;;5030265;28;20042;-66
2022/10/21 02:27:40;;;;;;;20.92;8.40;;;;;;;;;;5029502;28;20025;-66
2022/10/21 02:30:05;;;;;;;35.70;10.60;;;;;;;;;;5037289;28;20025;-67
2022/10/21 02:32:36;;;;;;;24.17;8.63;;;;;;;;;;5017139;28;20024;-66
2022/10/21 02:35:08;;;;;;;23.10;9.32;;;;;;;;;;5015875;28;20373;-66
2022/10/21 02:37:38;;;;;;;28.63;11.45;;;;;;;;;;5029624;28;20419;-65
2022/10/21 02:40:17;;;;;;;22.92;9.85;;;;;;;;;;5011843;28;20017;-68
2022/10/21 02:42:44;;;;;;;24.60;9.63;;;;;;;;;;5030922;28;20096;-66
2022/10/21 02:45:10;;;;;;;23.00;9.30;;;;;;;;;;5030148;28;20455;-65
2022/10/21 02:47:36;;;;;;;18.90;9.02;;;;;;;;;;5029311;28;20108;-67
2022/10/21 02:50:01;;;;;;;19.38;9.02;;;;;;;;;;5030173;28;20033;-67
2022/10/21 02:52:26;;;;;;;29.42;9.20;;;;;;;;;;5026430;28;20029;-65
2022/10/21 02:54:51;;;;;;;21.90;9.50;;;;;;;;;;5034494;28;20388;-66
2022/10/21 02:57:16;;;;;;;20.02;8.57;;;;;;;;;;5029177;28;20060;-64
2022/10/21 02:59:42;;;;;;;21.00;9.17;;;;;;;;;;5030455;28;20013;-66
2022/10/21 03:02:07;;;;;;;27.15;8.75;;;;;;;;;;5029457;28;20597;-65
2022/10/21 03:04:32;;;;;;;25.75;9.88;;;;;;;;;;5035857;28;20025;-66
2022/10/21 03:06:57;;;;;;;26.27;9.35;;;;;;;;;;5026570;28;20024;-66
2022/10/21 03:09:22;;;;;;;15.88;8.90;;;;;;;;;;5014788;28;20040;-67
2022/10/21 03:11:48;;;;;;;22.25;9.25;;;;;;;;;;5040559;28;20024;-66
2022/10/21 03:14:13;;;;;;;17.58;8.57;;;;;;;;;;5032834;28;20025;-66
2022/10/21 03:16:38;;;;;;;26.23;8.93;;;;;;;;;;5029506;28;20025;-65
2022/10/21 03:19:03;;;;;;;15.15;7.35;;;;;;;;;;5029620;28;20025;-66
2022/10/21 03:21:29;;;;;;;20.65;8.20;;;;;;;;;;5029369;28;20025;-66
2022/10/21 03:23:54;;;;;;;17.40;8.50;;;;;;;;;;5029324;28;20017;-65
2022/10/21 03:26:19;;;;;;;20.35;8.77;;;;;;;;;;5043876;28;20017;-65
2022/10/21 03:28:44;;;;;;;29.95;9.30;;;;;;;;;;5027679;28;20032;-65
2022/10/21 03:31:09;;;;;;;25.63;9.48;;;;;;;;;;5030248;28;20092;-66
2022/10/21 03:33:35;;;;;;;22.23;8.82;;;;;;;;;;5029855;28;20498;-64
2022/10/21 03:36:00;;;;;;;21.90;9.37;;;;;;;;;;5028268;28;20026;-66
2022/10/21 03:38:25;;;;;;;18.13;8.73;;;;;;;;;;5028795;28;20254;-65
2022/10/21 03:40:50;;;;;;;27.38;9.13;;;;;;;;;;5029783;28;20100;-66
2022/10/21 03:43:16;;;;;;;24.73;9.02;;;;;;;;;;5032904;28;20025;-66
2022/10/21 03:45:41;;;;;;;20.42;8.10;;;;;;;;;;5037937;28;20045;-67
2022/10/21 03:48:06;;;;;;;18.17;8.03;;;;;;;;;;5037868;28;20408;-66
2022/10/21 03:50:31;;;;;;;41.28;10.23;;;;;;;;;;5033094;28;20294;-66
2022/10/21 03:52:58;;;;;;;26.58;9.30;;;;;;;;;;5033668;28;20105;-65
2022/10/21 03:55:24;;;;;;;19.95;8.40;;;;;;;;;;5034343;28;20024;-65
2022/10/21 03:57:49;;;;;;;23.30;10.07;;;;;;;;;;5032424;28;20009;-66
2022/10/21 04:00:15;;;;;;;32.70;9.38;;;;;;;;;;5032026;28;20022;-66
2022/10/21 04:02:40;;;;;;;19.52;8.52;;;;;;;;;;5029575;28;20075;-65
2022/10/21 04:05:05;;;;;;;21.98;9.27;;;;;;;;;;5042917;28;20061;-65
2022/10/21 04:07:31;;;;;;;23.20;9.20;;;;;;;;;;5049411;28;20037;-66
2022/10/21 04:09:56;;;;;;;23.67;9.25;;;;;;;;;;5023140;28;20021;-66
2022/10/21 04:12:21;;;;;;;16.67;7.32;;;;;;;;;;5035111;28;20044;-67
2022/10/21 04:14:46;;;;;;;26.87;8.90;;;;;;;;;;5032466;28;20104;-68
2022/10/21 04:17:11;;;;;;;20.08;10.45;;;;;;;;;;5032831;28;20358;-66
2022/10/21 04:19:37;;;;;;;22.48;8.57;;;;;;;;;;5015916;28;20017;-66
2022/10/21 04:22:02;;;;;;;22.42;9.55;;;;;;;;;;5028000;28;20030;-66
2022/10/21 04:24:27;;;;;;;18.38;8.82;;;;;;;;;;5032521;28;20025;-66
2022/10/21 04:26:52;;;;;;;26.90;8.25;;;;;;;;;;5032810;28;20025;-66
2022/10/21 04:29:24;;;;;;;21.17;8.70;;;;;;;;;;5039054;28;20483;-73
2022/10/21 04:31:49;;;;;;;17.13;8.60;;;;;;;;;;5031827;28;20253;-66
2022/10/21 04:34:14;;;;;;;24.55;8.82;;;;;;;;;;5023854;28;20200;-66
2022/10/21 04:36:39;;;;;;;20.25;9.05;;;;;;;;;;5026993;28;20020;-67
2022/10/21 04:39:05;;;;;;;19.60;8.50;;;;;;;;;;5033104;28;20363;-66
2022/10/21 04:41:30;;;;;;;20.92;9.45;;;;;;;;;;5032823;28;20033;-68
2022/10/21 04:43:55;;;;;;;17.95;8.82;;;;;;;;;;5033557;28;20028;-66
2022/10/21 04:46:20;;;;;;;18.77;8.25;;;;;;;;;;5033947;28;20037;-66
2022/10/21 04:48:46;;;;;;;29.70;9.70;;;;;;;;;;5017249;28;20022;-66
2022/10/21 04:51:11;;;;;;;26.73;11.05;;;;;;;;;;5035616;28;20022;-65
2022/10/21 04:53:36;;;;;;;16.08;7.97;;;;;;;;;;5033645;28;20021;-66
2022/10/21 04:56:01;;;;;;;13.60;7.45;;;;;;;;;;5034203;28;20499;-67
2022/10/21 04:58:27;;;;;;;16.13;8.50;;;;;;;;;;5033259;28;20021;-66
2022/10/21 05:00:52;;;;;;;18.48;8.95;;;;;;;;;;5033423;28;20064;-67
2022/10/21 05:03:17;;;;;;;21.88;8.25;;;;;;;;;;5030975;28;20598;-67
2022/10/21 05:05:43;;;;;;;21.60;9.95;;;;;;;;;;5011898;28;20034;-64
2022/10/21 05:08:08;;;;;;;22.10;8.43;;;;;;;;;;5038468;28;20024;-65
2022/10/21 05:10:33;;;;;;;20.50;8.48;;;;;;;;;;5031263;28;20123;-66
2022/10/21 05:12:58;;;;;;;22.30;10.10;;;;;;;;;;5030510;28;20079;-64
2022/10/21 05:15:24;;;;;;;25.50;9.95;;;;;;;;;;5015475;28;20104;-65
2022/10/21 05:17:50;;;;;;;21.17;8.90;;;;;;;;;;5030704;28;20458;-65
2022/10/21 05:20:15;;;;;;;22.38;9.45;;;;;;;;;;5030205;28;20079;-65
2022/10/21 05:22:40;;;;;;;20.90;9.10;;;;;;;;;;5028288;28;20109;-65
2022/10/21 05:25:06;;;;;;;19.00;8.82;;;;;;;;;;5032905;28;20124;-65
2022/10/21 05:27:31;;;;;;;21.55;9.52;;;;;;;;;;5028144;28;20527;-66
2022/10/21 05:29:57;;;;;;;22.90;10.57;;;;;;;;;;5027552;28;20440;-66
2022/10/21 05:32:22;;;;;;;23.95;10.05;;;;;;;;;;5024741;28;20567;-67
2022/10/21 05:34:48;;;;;;;20.90;10.10;;;;;;;;;;5027484;28;20576;-66
2022/10/21 05:37:13;;;;;;;23.63;10.30;;;;;;;;;;5015204;28;20033;-64
2022/10/21 05:39:38;;;;;;;25.02;9.73;;;;;;;;;;5034766;28;20026;-66
2022/10/21 05:42:03;;;;;;;19.15;9.65;;;;;;;;;;5028552;28;20470;-67
2022/10/21 05:44:28;;;;;;;24.27;10.82;;;;;;;;;;5034940;28;20029;-66
2022/10/21 05:46:54;;;;;;;28.80;10.27;;;;;;;;;;5028543;28;20072;-65
2022/10/21 05:49:19;;;;;;;22.67;9.85;;;;;;;;;;5017562;28;20471;-66
2022/10/21 05:51:44;;;;;;;20.90;9.65;;;;;;;;;;5028031;28;20702;-66
2022/10/21 05:54:09;;;;;;;18.67;10.10;;;;;;;;;;5037415;28;20025;-65
2022/10/21 05:56:35;;;;;;;30.65;9.05;;;;;;;;;;5015102;28;20037;-66
2022/10/21 05:59:00;;;;;;;20.92;9.85;;;;;;;;;;5029686;28;20487;-67
2022/10/21 06:01:26;;;;;;;18.75;9.23;;;;;;;;;;5035927;28;20020;-66
2022/10/21 06:03:51;;;;;;;32.47;11.23;;;;;;;;;;5035160;28;20054;-66
2022/10/21 06:06:16;;;;;;;29.15;9.80;;;;;;;;;;5007406;28;20113;-65
2022/10/21 06:08:41;;;;;;;18.77;8.95;;;;;;;;;;5021910;28;20057;-66
2022/10/21 06:11:11;;;;;;;26.33;8.88;;;;;;;;;;5033644;28;20116;-66
2022/10/21 06:13:37;;;;;;;21.45;8.77;;;;;;;;;;5026390;28;20060;-67
2022/10/21 06:16:02;;;;;;;19.42;9.38;;;;;;;;;;5029471;28;20053;-66
2022/10/21 06:18:28;;;;;;;29.27;9.57;;;;;;;;;;5029683;28;20019;-66
2022/10/21 06:20:53;;;;;;;23.63;9.40;;;;;;;;;;5034295;28;20067;-66
2022/10/21 06:23:18;;;;;;;27.23;10.13;;;;;;;;;;5031607;28;20048;-65
2022/10/21 06:26:13;;;;;;;36.53;9.68;;;;;;;;;;5029060;28;20056;-65
2022/10/21 06:28:39;;;;;;;23.13;8.93;;;;;;;;;;5018205;28;20072;-66
2022/10/21 06:31:05;;;;;;;21.92;9.55;;;;;;;;;;5007990;28;20068;-66
2022/10/21 06:33:30;;;;;;;26.10;9.77;;;;;;;;;;5027631;28;20021;-66
2022/10/21 06:35:56;;;;;;;25.40;9.85;;;;;;;;;;5005665;28;20551;-68
2022/10/21 06:38:21;;;;;;;29.40;8.98;;;;;;;;;;5033710;28;20462;-66
2022/10/21 06:40:47;;;;;;;21.85;9.00;;;;;;;;;;5028418;28;20016;-66
2022/10/21 06:43:13;;;;;;;22.05;10.40;;;;;;;;;;5028184;28;20040;-65
2022/10/21 06:45:38;;;;;;;24.60;10.38;;;;;;;;;;5041225;28;20433;-66
2022/10/21 06:48:03;;;;;;;28.52;10.82;;;;;;;;;;5020036;28;20084;-66
2022/10/21 06:50:29;;;;;;;38.83;11.00;;;;;;;;;;5011632;28;20040;-66
2022/10/21 06:52:54;;;;;;;25.08;10.45;;;;;;;;;;5028670;28;20029;-65
2022/10/21 06:55:20;;;;;;;20.33;9.65;;;;;;;;;;5044979;28;20343;-66
2022/10/21 06:57:45;;;;;;;21.08;9.90;;;;;;;;;;5022462;28;20018;-66
2022/10/21 07:00:11;;;;;;;24.85;10.18;;;;;;;;;;5028348;28;20030;-66
2022/10/21 07:02:36;;;;;;;21.80;9.98;;;;;;;;;;5026524;28;20394;-67
2022/10/21 07:05:03;;;;;;;25.10;11.85;;;;;;;;;;5024823;28;20510;-66
2022/10/21 07:07:28;;;;;;;20.63;8.85;;;;;;;;;;5028161;28;20024;-67
2022/10/21 07:09:56;;;;;;;24.00;9.85;;;;;;;;;;5030313;28;20022;-67
2022/10/21 07:12:22;;;;;;;20.80;9.38;;;;;;;;;;5033053;28;20172;-65
2022/10/21 07:14:48;;;;;;;21.75;9.88;;;;;;;;;;5027792;28;20149;-67
2022/10/21 07:17:14;;;;;;;24.92;9.85;;;;;;;;;;5024688;28;20026;-67
2022/10/21 07:19:39;;;;;;;22.53;11.13;;;;;;;;;;5021567;28;20018;-68
2022/10/21 07:22:04;;;;;;;28.93;9.90;;;;;;;;;;5021005;28;20255;-66
2022/10/21 07:24:29;;;;;;;25.73;9.47;;;;;;;;;;5028522;28;20951;-66
2022/10/21 07:26:54;;;;;;;23.17;9.75;;;;;;;;;;5013231;28;20374;-65
2022/10/21 07:29:20;;;;;;;22.27;9.55;;;;;;;;;;5039211;28;20106;-66
2022/10/21 07:31:45;;;;;;;23.20;9.80;;;;;;;;;;5011560;28;20116;-68
2022/10/21 07:34:11;;;;;;;23.88;8.98;;;;;;;;;;5028521;28;20100;-65
2022/10/21 07:36:38;;;;;;;23.05;9.05;;;;;;;;;;5028864;28;20018;-67
2022/10/21 07:39:05;;;;;;;24.48;9.50;;;;;;;;;;5029065;28;20018;-66
2022/10/21 07:41:36;;;;;;;23.95;8.73;;;;;;;;;;5011289;28;20021;-67
2022/10/21 07:44:02;;;;;;;18.00;8.23;;;;;;;;;;5027734;28;20125;-65
2022/10/21 07:46:27;;;;;;;22.63;9.15;;;;;;;;;;5009227;28;20598;-65
2022/10/21 07:48:52;;;;;;;19.02;8.20;;;;;;;;;;5022097;28;20025;-65
2022/10/21 07:51:22;;;;;;;27.40;9.55;;;;;;;;;;5028160;28;20030;-66
2022/10/21 07:53:48;;;;;;;27.05;8.82;;;;;;;;;;5028162;28;20040;-66
2022/10/21 07:56:14;;;;;;;25.83;8.95;;;;;;;;;;5030277;28;20120;-66
2022/10/21 07:58:40;;;;;;;29.80;9.85;;;;;;;;;;5028925;28;20049;-65
2022/10/21 08:01:06;;;;;;;23.75;9.82;;;;;;;;;;5010789;28;20045;-67
2022/10/21 08:03:32;;;;;;;21.23;8.70;;;;;;;;;;5031950;28;20029;-67
2022/10/21 08:05:57;;;;;;;23.98;9.82;;;;;;;;;;5032057;28;20048;-68
2022/10/21 08:08:23;;;;;;;21.55;10.07;;;;;;;;;;5016869;28;20017;-65
2022/10/21 08:10:49;;;;;;;24.45;10.35;;;;;;;;;;5033585;28;20566;-67
2022/10/21 08:13:15;;;;;;;23.90;9.27;;;;;;;;;;5029496;28;20022;-67
2022/10/21 08:15:40;;;;;;;25.35;8.90;;;;;;;;;;5029779;28;20087;-66
2022/10/21 08:18:06;;;;;;;20.90;9.32;;;;;;;;;;5030584;28;20017;-66
2022/10/21 08:20:31;;;;;;;23.87;9.90;;;;;;;;;;5030654;28;20107;-66
2022/10/21 08:22:56;;;;;;;24.35;10.95;;;;;;;;;;5029339;28;20363;-65
2022/10/21 08:25:21;;;;;;;27.90;10.02;;;;;;;;;;5028951;28;20029;-66
2022/10/21 08:27:47;;;;;;;19.92;10.38;;;;;;;;;;5044874;28;20028;-68
2022/10/21 08:30:14;;;;;;;20.85;10.10;;;;;;;;;;5029657;28;20037;-67
2022/10/21 08:32:39;;;;;;;26.00;9.93;;;;;;;;;;5040441;28;20570;-66
2022/10/21 08:35:04;;;;;;;30.73;9.73;;;;;;;;;;5037766;28;20116;-68
2022/10/21 08:37:30;;;;;;;25.33;10.40;;;;;;;;;;5041386;28;20021;-66
2022/10/21 08:39:56;;;;;;;29.48;10.57;;;;;;;;;;5052025;28;20044;-66
2022/10/21 08:42:22;;;;;;;18.45;9.55;;;;;;;;;;5032812;28;20014;-65
2022/10/21 08:44:53;;;;;;;21.27;9.43;;;;;;;;;;5032498;28;20091;-67
2022/10/21 08:47:28;;;;;;;20.23;10.02;;;;;;;;;;5033089;28;20022;-68
2022/10/21 08:50:03;;;;;;;23.77;10.00;;;;;;;;;;5032631;28;20025;-66
2022/10/21 08:52:38;;;;;;;33.03;10.70;;;;;;;;;;5032825;28;20108;-68
2022/10/21 08:55:06;;;;;;;18.65;10.02;;;;;;;;;;5032279;28;20502;-66
2022/10/21 08:57:35;;;;;;;23.98;9.98;;;;;;;;;;5045349;28;20032;-68
2022/10/21 09:00:05;;;;;;;31.60;10.27;;;;;;;;;;5014949;28;20018;-67
2022/10/21 09:02:35;;;;;;;32.72;10.20;;;;;;;;;;5033097;28;20021;-66
2022/10/21 09:05:09;;;;;;;18.92;9.75;;;;;;;;;;5034537;28;20018;-66
2022/10/21 09:07:46;;;;;;;20.58;9.45;;;;;;;;;;5051582;28;20098;-68
2022/10/21 09:10:38;;;;;;;33.33;9.15;;;;;;;;;;5034025;28;20022;-66
2022/10/21 09:13:30;;;;;;;18.95;9.35;;;;;;;;;;5025643;28;20613;-66
2022/10/21 09:15:58;;;;;;;21.23;9.70;;;;;;;;;;5040574;28;20107;-67
2022/10/21 09:18:48;;;;;;;18.33;9.77;;;;;;;;;;5043147;28;20044;-68
2022/10/21 09:21:14;;;;;;;33.38;10.05;;;;;;;;;;5053740;28;20092;-67
2022/10/21 09:23:43;;;;;;;18.43;8.53;;;;;;;;;;5040315;28;20049;-68
2022/10/21 09:26:17;;;;;;;28.33;11.13;;;;;;;;;;5045340;28;20745;-67
2022/10/21 09:28:43;;;;;;;38.17;9.80;;;;;;;;;;5017216;28;20025;-65
2022/10/21 09:31:12;;;;;;;29.95;11.32;;;;;;;;;;5043237;28;20602;-68
2022/10/21 09:33:37;;;;;;;24.98;9.70;;;;;;;;;;5031483;28;20502;-70
2022/10/21 09:36:10;;;;;;;20.10;9.90;;;;;;;;;;5013826;28;20116;-66
2022/10/21 09:38:35;;;;;;;22.38;9.63;;;;;;;;;;5031913;28;20052;-68
2022/10/21 09:41:02;;;;;;;25.87;10.00;;;;;;;;;;5041405;28;20764;-66
2022/10/21 09:43:28;;;;;;;21.13;9.40;;;;;;;;;;5019033;28;20250;-68
2022/10/21 09:45:53;;;;;;;28.30;9.40;;;;;;;;;;5031341;28;20072;-66
2022/10/21 09:48:18;;;;;;;23.52;10.25;;;;;;;;;;5031031;28;20021;-68
2022/10/21 09:50:44;;;;;;;21.08;8.82;;;;;;;;;;5013507;28;20021;-66
2022/10/21 09:53:10;;;;;;;25.40;11.07;;;;;;;;;;5030738;28;20029;-67
2022/10/21 09:55:37;;;;;;;22.83;10.87;;;;;;;;;;5036307;28;20084;-66
2022/10/21 09:58:03;;;;;;;29.00;10.27;;;;;;;;;;5030932;28;20290;-67
2022/10/21 10:00:44;;;;;;;25.60;10.75;;;;;;;;;;5031087;28;20051;-66
2022/10/21 10:03:10;;;;;;;18.80;9.82;;;;;;;;;;5032345;28;20078;-67
2022/10/21 10:05:48;;;;;;;24.85;9.73;;;;;;;;;;5025194;28;20109;-68
2022/10/21 10:08:24;;;;;;;30.35;10.35;;;;;;;;;;5032704;28;20033;-68
2022/10/21 10:10:50;;;;;;;24.05;10.48;;;;;;;;;;5043049;28;20048;-68
2022/10/21 10:13:17;;;;;;;27.58;10.60;;;;;;;;;;5012869;28;20056;-68
2022/10/21 10:15:42;;;;;;;22.52;10.00;;;;;;;;;;5014776;28;20027;-68
2022/10/21 10:18:18;;;;;;;28.60;10.30;;;;;;;;;;5051237;28;20024;-66
2022/10/21 10:20:43;;;;;;;22.10;10.45;;;;;;;;;;5019585;28;20071;-66
2022/10/21 10:23:15;;;;;;;27.05;9.90;;;;;;;;;;5046436;28;20021;-71
2022/10/21 10:25:46;;;;;;;29.52;11.18;;;;;;;;;;5030028;28;20017;-68
2022/10/21 10:28:11;;;;;;;25.02;10.77;;;;;;;;;;5017925;28;20097;-69
2022/10/21 10:30:44;;;;;;;21.70;9.52;;;;;;;;;;5042260;28;20064;-67
2022/10/21 10:33:17;;;;;;;19.85;9.50;;;;;;;;;;5013483;28;20053;-67
2022/10/21 10:35:51;;;;;;;25.38;10.25;;;;;;;;;;5017695;28;20037;-66
2022/10/21 10:38:39;;;;;;;26.85;9.30;;;;;;;;;;5031119;28;20009;-67
2022/10/21 10:41:09;;;;;;;23.13;9.32;;;;;;;;;;5024805;28;20040;-67
2022/10/21 10:43:36;;;;;;;21.48;11.48;;;;;;;;;;5044440;28;20025;-69
2022/10/21 10:46:02;;;;;;;25.60;9.98;;;;;;;;;;5030580;28;20021;-68
2022/10/21 10:48:35;;;;;;;26.75;10.05;;;;;;;;;;5012501;28;20021;-69
2022/10/21 10:51:04;;;;;;;19.35;9.57;;;;;;;;;;5030626;28;20506;-69
2022/10/21 10:53:29;;;;;;;;;;;;;;;;;;5026736;28;20043;-67
2022/10/21 10:56:06;;;;;;;25.40;9.02;;;;;;;;;;5043017;28;19991;-68
2022/10/21 10:58:34;;;;;;;21.83;10.10;;;;;;;;;;4999348;28;20013;-67
2022/10/21 11:01:01;;;;;;;25.77;10.23;;;;;;;;;;5043015;28;20478;-67
2022/10/21 11:03:30;;;;;;;29.58;10.10;;;;;;;;;;5024193;28;20040;-70
2022/10/21 11:06:01;;;;;;;20.58;9.35;;;;;;;;;;5037224;28;20547;-67
2022/10/21 11:08:31;;;;;;;27.33;9.63;;;;;;;;;;5037447;28;20017;-71
2022/10/21 11:11:02;;;;;;;37.65;9.10;;;;;;;;;;5030066;28;20032;-69
2022/10/21 11:13:27;;;;;;;27.50;10.10;;;;;;;;;;5030309;28;20021;-68
2022/10/21 11:15:56;;;;;;;18.80;9.85;;;;;;;;;;5031522;28;20155;-68
2022/10/21 11:18:21;;;;;;;23.20;8.95;;;;;;;;;;5030022;28;20013;-66
2022/10/21 11:21:04;;;;;;;24.58;10.02;;;;;;;;;;5029785;28;20013;-68
2022/10/21 11:23:48;;;;;;;26.70;9.23;;;;;;;;;;5030116;28;20358;-68
2022/10/21 11:26:42;;;;;;;28.02;9.38;;;;;;;;;;5028696;28;20025;-66
2022/10/21 11:29:22;;;;;;;20.48;10.50;;;;;;;;;;5016900;28;20033;-67
2022/10/21 11:32:20;;;;;;;23.58;10.05;;;;;;;;;;5022251;28;20043;-68
2022/10/21 11:34:45;;;;;;;20.30;9.63;;;;;;;;;;4976046;28;20112;-67
2022/10/21 11:37:10;;;;;;;25.17;9.30;;;;;;;;;;5033020;28;20517;-68
2022/10/21 11:39:53;;;;;;;25.37;9.60;;;;;;;;;;5038693;28;20264;-68
2022/10/21 11:42:21;;;;;;;22.75;10.40;;;;;;;;;;5044014;28;20242;-66
2022/10/21 11:44:49;;;;;;;23.90;9.35;;;;;;;;;;5030401;28;20044;-66
2022/10/21 11:47:19;;;;;;;29.25;9.63;;;;;;;;;;5029761;28;20036;-68
2022/10/21 11:49:52;;;;;;;21.58;9.60;;;;;;;;;;5030186;28;20044;-69
2022/10/21 11:52:17;;;;;;;25.38;9.20;;;;;;;;;;5031008;28;20040;-67
2022/10/21 11:54:43;;;;;;;27.33;9.03;;;;;;;;;;5042473;28;20034;-68
2022/10/21 11:57:11;;;;;;;20.83;8.32;;;;;;;;;;5029925;28;20282;-66
2022/10/21 11:59:39;;;;;;;24.70;9.40;;;;;;;;;;5029713;28;20037;-67
2022/10/21 12:02:17;;;;;;;22.13;10.47;;;;;;;;;;5030030;28;20142;-67
2022/10/21 12:05:00;;;;;;;22.45;9.70;;;;;;;;;;5033042;28;20759;-66
2022/10/21 12:07:31;;;;;;;23.73;9.50;;;;;;;;;;5033234;28;20395;-67
2022/10/21 12:09:57;;;;;;;21.75;9.55;;;;;;;;;;5035398;28;20096;-69
2022/10/21 12:12:25;;;;;;;22.87;9.40;;;;;;;;;;5038023;28;20045;-68
2022/10/21 12:14:58;;;;;;;20.92;10.20;;;;;;;;;;5044522;28;20274;-68
2022/10/21 12:17:24;;;;;;;21.33;9.45;;;;;;;;;;5032429;28;20155;-68
2022/10/21 12:19:53;;;;;;;25.80;11.25;;;;;;;;;;5033262;28;20096;-67
2022/10/21 12:22:18;;;;;;;30.90;10.50;;;;;;;;;;5032463;28;20045;-68
2022/10/21 12:25:02;;;;;;;27.80;11.27;;;;;;;;;;5031928;28;20105;-66
2022/10/21 12:27:38;;;;;;;21.48;9.73;;;;;;;;;;5041035;28;20021;-69
2022/10/21 12:30:15;;;;;;;26.33;11.23;;;;;;;;;;5046030;28;20697;-69
2022/10/21 12:32:59;;;;;;;27.07;11.10;;;;;;;;;;5021678;28;20025;-70
2022/10/21 12:35:27;;;;;;;31.17;10.25;;;;;;;;;;5032783;28;20099;-67
2022/10/21 12:37:52;;;;;;;24.20;11.07;;;;;;;;;;5032349;28;20053;-68
2022/10/21 12:40:26;;;;;;;29.65;11.80;;;;;;;;;;5015037;28;20045;-67
2022/10/21 12:42:59;;;;;;;22.95;11.63;;;;;;;;;;5032184;28;20017;-66
2022/10/21 12:45:25;;;;;;;39.88;17.73;;;;;;;;;;5032358;28;20434;-66
2022/10/21 12:47:51;;;;;;;23.02;11.48;;;;;;;;;;5032136;28;20029;-68
2022/10/21 12:50:21;;;;;;;29.38;12.70;;;;;;;;;;5033169;28;20082;-67
2022/10/21 12:53:01;;;;;;;27.35;11.95;;;;;;;;;;5033276;28;20021;-65
2022/10/21 12:55:27;;;;;;;25.10;11.20;;;;;;;;;;5031752;28;20134;-66
2022/10/21 12:57:56;;;;;;;20.98;10.73;;;;;;;;;;5031297;28;20491;-67
2022/10/21 13:00:21;;;;;;;26.42;11.65;;;;;;;;;;5031563;28;20014;-69
2022/10/21 13:02:55;;;;;;;36.60;14.77;;;;;;;;;;5029913;28;20036;-66
2022/10/21 13:05:36;;;;;;;30.85;12.48;;;;;;;;;;5043252;28;20883;-67
2022/10/21 13:08:19;;;;;;;26.05;12.13;;;;;;;;;;5039138;28;20403;-65
2022/10/21 13:11:03;;;;;;;30.67;12.85;;;;;;;;;;5027105;28;20022;-66
2022/10/21 13:13:34;;;;;;;34.47;11.95;;;;;;;;;;5036796;28;20028;-68
2022/10/21 13:16:23;;;;;;;25.08;12.75;;;;;;;;;;5031451;28;20021;-67
2022/10/21 13:19:14;;;;;;;32.17;13.07;;;;;;;;;;5015295;28;20081;-64
2022/10/21 13:21:42;;;;;;;28.88;11.50;;;;;;;;;;5000662;28;20079;-65
2022/10/21 13:24:10;;;;;;;32.37;13.77;;;;;;;;;;5031234;28;20573;-67
2022/10/21 13:26:39;;;;;;;26.63;13.75;;;;;;;;;;5043343;28;20261;-67
2022/10/21 13:29:13;;;;;;;28.95;14.05;;;;;;;;;;5026043;28;20022;-66
2022/10/21 13:31:38;;;;;;;27.92;14.25;;;;;;;;;;5031765;28;20025;-68
2022/10/21 13:34:04;;;;;;;32.17;13.25;;;;;;;;;;5051092;28;20025;-65
2022/10/21 13:36:38;;;;;;;25.52;12.85;;;;;;;;;;5038516;28;20029;-68
2022/10/21 13:39:22;;;;;;;29.73;14.40;;;;;;;;;;5028308;28;20044;-67
2022/10/21 13:41:54;;;;;;;31.60;13.75;;;;;;;;;;5035171;28;20545;-69
2022/10/21 13:44:25;;;;;;;26.27;13.70;;;;;;;;;;5042100;28;20025;-66
2022/10/21 13:46:50;;;;;;;35.58;13.32;;;;;;;;;;5033041;28;20476;-66
2022/10/21 13:49:29;;;;;;;24.42;13.63;;;;;;;;;;5031056;28;20025;-66
2022/10/21 13:51:54;;;;;;;34.70;13.57;;;;;;;;;;5012867;28;20049;-68
2022/10/21 13:54:19;;;;;;;33.13;13.43;;;;;;;;;;5035835;28;20072;-66
2022/10/21 13:56:45;;;;;;;27.95;13.70;;;;;;;;;;5031359;28;20052;-67
2022/10/21 13:59:20;;;;;;;30.95;14.38;;;;;;;;;;5031097;28;20466;-67
2022/10/21 14:01:53;;;;;;;35.00;14.13;;;;;;;;;;5031432;28;20026;-67
2022/10/21 14:04:22;;;;;;;33.65;14.35;;;;;;;;;;5036820;28;20108;-66
2022/10/21 14:06:56;;;;;;;34.10;14.85;;;;;;;;;;5040387;28;20030;-66
2022/10/21 14:09:26;;;;;;;32.22;13.30;;;;;;;;;;5033862;28;20092;-67
2022/10/21 14:11:57;;;;;;;30.67;13.45;;;;;;;;;;5012209;28;20026;-67
2022/10/21 14:14:23;;;;;;;28.10;12.77;;;;;;;;;;5030998;28;20021;-66
2022/10/21 14:16:53;;;;;;;32.15;12.95;;;;;;;;;;5012523;28;20017;-65
2022/10/21 14:19:25;;;;;;;34.15;13.90;;;;;;;;;;5030551;28;20064;-68
2022/10/21 14:21:52;;;;;;;27.55;13.10;;;;;;;;;;5025953;28;20017;-67
2022/10/21 14:24:23;;;;;;;36.10;14.75;;;;;;;;;;5030637;28;20027;-66
2022/10/21 14:26:48;;;;;;;33.38;14.70;;;;;;;;;;5043896;28;20017;-67
2022/10/21 14:29:13;;;;;;;32.38;13.98;;;;;;;;;;5022758;28;20399;-70
2022/10/21 14:31:38;;;;;;;30.25;13.63;;;;;;;;;;5035640;28;20060;-68
2022/10/21 14:34:06;;;;;;;28.33;13.38;;;;;;;;;;5043445;28;20471;-69